createdAt,value
2018-08-07T00:01:09.532Z,50.10
2018-08-07T00:03:39.647Z,50.40
2018-08-07T00:06:09.822Z,49.80
2018-08-07T00:08:39.940Z,49.80
2018-08-07T00:11:10.048Z,49.70
2018-08-07T00:13:40.182Z,50.30
2018-08-07T00:16:10.796Z,49.60
2018-08-07T00:18:40.953Z,49.60
2018-08-07T00:21:11.549Z,49.80
2018-08-07T00:23:42.013Z,49.70
2018-08-07T00:26:12.255Z,49.70
2018-08-07T00:28:42.400Z,49.90
2018-08-07T00:31:12.501Z,50.10
2018-08-07T00:33:42.540Z,50.20
2018-08-07T00:36:12.751Z,50.40
2018-08-07T00:38:42.992Z,51.00
2018-08-07T00:41:13.105Z,50.30
2018-08-07T00:43:43.326Z,50.40
2018-08-07T00:46:13.373Z,50.60
2018-08-07T00:48:43.499Z,50.80
2018-08-07T00:51:13.578Z,51.30
2018-08-07T00:53:43.835Z,51.40
2018-08-07T00:56:14.036Z,51.60
2018-08-07T00:58:44.239Z,51.90
2018-08-07T01:01:14.316Z,52.00
2018-08-07T01:03:44.485Z,52.40
2018-08-07T01:06:14.635Z,52.80
2018-08-07T01:08:44.795Z,53.30
2018-08-07T01:11:15.001Z,53.90
2018-08-07T01:13:45.223Z,54.60
2018-08-07T01:16:15.268Z,54.80
2018-08-07T01:18:45.352Z,54.90
2018-08-07T01:21:15.497Z,54.90
2018-08-07T01:23:45.669Z,54.50
2018-08-07T01:26:15.728Z,54.00
2018-08-07T01:28:45.858Z,53.60
2018-08-07T01:31:15.972Z,53.80
2018-08-07T01:33:46.098Z,52.90
2018-08-07T01:36:16.327Z,52.50
2018-08-07T01:38:46.579Z,52.40
2018-08-07T01:41:16.827Z,52.30
2018-08-07T01:43:46.910Z,52.20
2018-08-07T01:46:17.008Z,52.30
2018-08-07T01:48:47.184Z,52.30
2018-08-07T01:51:23.820Z,52.20
2018-08-07T01:53:53.892Z,52.00
2018-08-07T01:56:24.178Z,52.00
2018-08-07T01:58:54.316Z,52.10
2018-08-07T02:01:24.418Z,52.00
2018-08-07T02:03:55.378Z,51.90
2018-08-07T02:06:25.589Z,51.80
2018-08-07T02:08:55.782Z,51.80
2018-08-07T02:11:25.893Z,51.80
2018-08-07T02:13:56.168Z,51.90
2018-08-07T02:16:26.435Z,51.90
2018-08-07T02:18:56.636Z,52.20
2018-08-07T02:21:26.804Z,52.20
2018-08-07T02:23:57.024Z,52.30
2018-08-07T02:26:27.196Z,52.60
2018-08-07T02:28:57.426Z,52.70
2018-08-07T02:31:27.510Z,52.90
2018-08-07T02:33:57.603Z,53.00
2018-08-07T02:38:57.308Z,52.60
2018-08-07T02:41:27.552Z,52.80
2018-08-07T02:43:57.648Z,53.10
2018-08-07T02:46:27.869Z,53.00
2018-08-07T02:48:58.090Z,53.40
2018-08-07T02:51:28.196Z,53.10
2018-08-07T02:53:58.298Z,53.80
2018-08-07T02:56:28.400Z,53.60
2018-08-07T02:58:58.675Z,53.50
2018-08-07T03:01:29.317Z,53.50
2018-08-07T03:03:59.404Z,53.20
2018-08-07T03:06:29.526Z,53.80
2018-08-07T03:08:59.711Z,53.90
2018-08-07T03:11:29.868Z,53.70
2018-08-07T03:14:00.069Z,54.10
2018-08-07T03:16:30.236Z,54.20
2018-08-07T03:19:00.431Z,53.80
2018-08-07T03:21:30.507Z,54.20
2018-08-07T03:24:00.578Z,54.20
2018-08-07T03:26:30.768Z,54.70
2018-08-07T03:29:00.990Z,55.30
2018-08-07T03:31:31.096Z,55.20
2018-08-07T03:34:01.302Z,56.40
2018-08-07T03:39:01.233Z,57.00
2018-08-07T03:41:31.968Z,57.00
2018-08-07T03:44:02.090Z,57.20
2018-08-07T03:46:32.279Z,57.00
2018-08-07T03:49:02.859Z,57.00
2018-08-07T03:51:33.115Z,57.60
2018-08-07T03:54:03.296Z,57.00
2018-08-07T03:56:33.503Z,56.80
2018-08-07T03:59:03.630Z,56.60
2018-08-07T04:01:33.659Z,56.40
2018-08-07T04:04:04.016Z,56.30
2018-08-07T04:06:34.163Z,55.90
2018-08-07T04:09:07.180Z,55.70
2018-08-07T04:11:37.918Z,55.50
2018-08-07T04:14:08.877Z,55.40
2018-08-07T04:16:43.119Z,55.30
2018-08-07T04:19:13.369Z,55.20
2018-08-07T04:21:43.588Z,55.00
2018-08-07T04:24:13.623Z,54.90
2018-08-07T04:26:44.330Z,55.50
2018-08-07T04:29:14.401Z,54.80
2018-08-07T04:31:44.631Z,54.90
2018-08-07T04:34:14.762Z,54.80
2018-08-07T04:36:44.803Z,54.70
2018-08-07T04:39:15.100Z,54.50
2018-08-07T04:41:45.322Z,54.40
2018-08-07T04:44:15.441Z,54.30
2018-08-07T04:46:45.638Z,54.20
2018-08-07T04:49:15.862Z,54.70
2018-08-07T04:51:45.929Z,54.00
2018-08-07T04:54:15.965Z,53.80
2018-08-07T04:56:46.124Z,53.80
2018-08-07T04:59:16.417Z,53.80
2018-08-07T05:01:46.615Z,54.00
2018-08-07T05:04:16.756Z,53.90
2018-08-07T05:06:46.848Z,53.90
2018-08-07T05:09:17.021Z,53.90
2018-08-07T05:11:47.210Z,53.90
2018-08-07T05:16:47.415Z,54.20
2018-08-07T05:19:17.456Z,54.50
2018-08-07T05:21:47.694Z,54.50
2018-08-07T05:24:17.714Z,54.70
2018-08-07T05:26:47.949Z,54.80
2018-08-07T05:29:18.086Z,54.80
2018-08-07T05:31:48.155Z,54.70
2018-08-07T05:34:18.389Z,54.60
2018-08-07T05:36:48.527Z,54.60
2018-08-07T05:39:18.669Z,54.60
2018-08-07T05:41:49.367Z,55.30
2018-08-07T05:44:20.033Z,55.50
2018-08-07T05:46:50.177Z,55.10
2018-08-07T05:49:20.266Z,55.30
2018-08-07T05:51:50.458Z,55.80
2018-08-07T05:54:21.352Z,55.80
2018-08-07T05:56:51.566Z,55.70
2018-08-07T05:59:21.826Z,55.70
2018-08-07T06:01:51.996Z,55.90
2018-08-07T06:04:22.983Z,56.30
2018-08-07T06:06:53.106Z,56.50
2018-08-07T06:09:23.143Z,56.50
2018-08-07T06:11:53.216Z,56.50
2018-08-07T06:14:23.593Z,56.70
2018-08-07T06:16:53.755Z,56.80
2018-08-07T06:19:23.900Z,57.00
2018-08-07T06:21:54.074Z,57.10
2018-08-07T06:24:24.124Z,56.80
2018-08-07T06:26:54.406Z,56.70
2018-08-07T06:29:24.588Z,56.80
2018-08-07T06:31:54.816Z,56.80
2018-08-07T06:34:25.444Z,56.60
2018-08-07T06:36:55.742Z,56.40
2018-08-07T06:39:25.872Z,56.10
2018-08-07T06:41:56.030Z,56.10
2018-08-07T06:44:26.618Z,56.10
2018-08-07T06:46:56.868Z,55.90
2018-08-07T06:49:27.070Z,55.50
2018-08-07T06:51:57.140Z,55.10
2018-08-07T06:54:27.283Z,55.10
2018-08-07T06:56:58.544Z,54.70
2018-08-07T06:59:28.620Z,54.60
2018-08-07T07:01:58.926Z,54.30
2018-08-07T07:04:29.796Z,54.30
2018-08-07T07:06:59.948Z,53.80
2018-08-07T07:09:30.119Z,53.20
2018-08-07T07:12:00.238Z,52.60
2018-08-07T07:14:30.369Z,52.30
2018-08-07T07:17:00.469Z,51.90
2018-08-07T07:22:00.799Z,51.60
2018-08-07T07:24:31.349Z,51.50
2018-08-07T07:27:01.564Z,51.40
2018-08-07T07:29:31.540Z,51.40
2018-08-07T07:32:01.663Z,51.40
2018-08-07T07:37:02.485Z,51.60
2018-08-07T07:39:32.569Z,51.80
2018-08-07T07:42:02.761Z,52.00
2018-08-07T07:44:33.513Z,51.80
2018-08-07T07:47:03.654Z,51.60
2018-08-07T07:49:33.736Z,51.50
2018-08-07T07:52:03.890Z,51.60
2018-08-07T07:54:33.971Z,51.60
2018-08-07T07:57:04.235Z,51.40
2018-08-07T07:59:34.337Z,51.30
2018-08-07T08:02:04.557Z,51.10
2018-08-07T08:04:34.655Z,50.90
2018-08-07T08:07:04.875Z,50.70
2018-08-07T08:09:35.033Z,50.50
2018-08-07T08:12:05.224Z,50.50
2018-08-07T08:14:35.351Z,50.20
2018-08-07T08:17:05.898Z,50.20
2018-08-07T08:19:36.029Z,50.10
2018-08-07T08:22:06.509Z,50.00
2018-08-07T08:24:36.883Z,49.90
2018-08-07T08:27:06.996Z,49.50
2018-08-07T08:29:38.100Z,49.40
2018-08-07T08:32:08.287Z,49.30
2018-08-07T08:34:38.518Z,49.20
2018-08-07T08:37:08.751Z,49.10
2018-08-07T08:39:38.799Z,49.10
2018-08-07T08:42:09.033Z,49.20
2018-08-07T08:44:39.333Z,49.40
2018-08-07T08:47:09.733Z,49.40
2018-08-07T08:49:39.813Z,49.10
2018-08-07T08:52:10.101Z,49.60
2018-08-07T08:54:40.991Z,48.90
2018-08-07T08:57:11.132Z,48.60
2018-08-07T08:59:42.220Z,48.60
2018-08-07T09:02:13.372Z,48.80
2018-08-07T09:04:43.491Z,49.00
2018-08-07T09:07:14.373Z,49.10
2018-08-07T09:09:44.425Z,49.10
2018-08-07T09:12:14.642Z,49.00
2018-08-07T09:14:44.767Z,48.90
2018-08-07T09:17:14.878Z,48.60
2018-08-07T09:19:44.904Z,48.20
2018-08-07T09:22:15.010Z,47.60
2018-08-07T09:24:45.551Z,47.20
2018-08-07T09:27:15.648Z,46.90
2018-08-07T09:29:45.982Z,46.50
2018-08-07T09:32:16.094Z,46.30
2018-08-07T09:34:46.184Z,46.00
2018-08-07T09:37:16.951Z,45.80
2018-08-07T09:39:47.075Z,45.50
2018-08-07T09:42:17.234Z,45.30
2018-08-07T09:44:47.334Z,45.10
2018-08-07T09:47:17.490Z,44.80
2018-08-07T09:49:47.544Z,44.90
2018-08-07T09:52:17.892Z,44.40
2018-08-07T09:54:48.224Z,44.40
2018-08-07T09:57:18.350Z,43.90
2018-08-07T09:59:48.489Z,43.60
2018-08-07T10:02:23.953Z,43.50
2018-08-07T10:04:54.054Z,43.20
2018-08-07T10:07:24.225Z,42.80
2018-08-07T10:09:54.308Z,42.90
2018-08-07T10:12:24.630Z,42.70
2018-08-07T10:14:54.817Z,42.70
2018-08-07T10:17:25.605Z,42.70
2018-08-07T10:19:55.691Z,42.80
2018-08-07T10:22:25.937Z,42.60
2018-08-07T10:24:55.996Z,42.10
2018-08-07T10:27:26.198Z,42.00
2018-08-07T10:29:56.365Z,41.30
2018-08-07T10:32:26.805Z,40.90
2018-08-07T10:34:57.444Z,40.80
2018-08-07T10:37:27.875Z,40.20
2018-08-07T10:39:57.944Z,40.10
2018-08-07T10:42:28.163Z,39.70
2018-08-07T10:44:58.369Z,40.10
2018-08-07T10:47:28.538Z,40.40
2018-08-07T10:49:58.601Z,40.40
2018-08-07T10:52:28.713Z,40.20
2018-08-07T10:54:58.781Z,40.00
2018-08-07T10:57:28.921Z,39.90
2018-08-07T10:59:59.495Z,39.30
2018-08-07T11:02:29.604Z,39.10
2018-08-07T11:04:59.784Z,38.80
2018-08-07T11:07:30.034Z,38.30
2018-08-07T11:10:00.213Z,38.70
2018-08-07T11:12:30.733Z,38.70
2018-08-07T11:15:00.898Z,38.70
2018-08-07T11:17:31.459Z,38.80
2018-08-07T11:20:01.734Z,38.10
2018-08-07T11:22:32.013Z,38.00
2018-08-07T11:25:02.629Z,38.80
2018-08-07T11:27:32.720Z,38.40
2018-08-07T11:30:02.924Z,38.40
2018-08-07T11:32:33.053Z,38.50
2018-08-07T11:35:03.238Z,37.90
2018-08-07T11:37:33.478Z,38.00
2018-08-07T11:40:03.839Z,37.90
2018-08-07T11:42:34.011Z,37.80
2018-08-07T11:47:35.038Z,36.70
2018-08-07T11:50:09.383Z,36.60
2018-08-07T11:52:39.784Z,36.50
2018-08-07T11:55:12.307Z,36.10
2018-08-07T11:57:42.623Z,36.60
2018-08-07T12:00:20.946Z,36.80
2018-08-07T12:02:51.439Z,36.60
2018-08-07T12:05:21.558Z,36.60
2018-08-07T12:07:51.706Z,36.70
2018-08-07T12:10:21.941Z,36.50
2018-08-07T12:12:52.223Z,36.50
2018-08-07T12:15:23.735Z,36.40
2018-08-07T12:17:54.252Z,36.50
2018-08-07T12:20:24.531Z,36.40
2018-08-07T12:22:54.800Z,36.30
2018-08-07T12:25:25.084Z,36.50
2018-08-07T12:27:55.366Z,36.30
2018-08-07T12:30:28.188Z,36.30
2018-08-07T12:32:58.977Z,36.30
2018-08-07T12:35:29.246Z,36.10
2018-08-07T12:37:59.424Z,36.30
2018-08-07T12:40:31.242Z,35.90
2018-08-07T12:43:03.826Z,35.90
2018-08-07T12:45:34.058Z,36.00
2018-08-07T12:48:04.292Z,36.10
2018-08-07T12:50:34.448Z,35.90
2018-08-07T12:53:04.728Z,35.90
2018-08-07T12:55:34.915Z,35.30
2018-08-07T12:58:05.136Z,34.60
2018-08-07T13:00:35.360Z,34.70
2018-08-07T13:03:05.541Z,34.80
2018-08-07T13:05:35.726Z,35.40
2018-08-07T13:08:05.964Z,35.60
2018-08-07T13:10:36.158Z,35.60
2018-08-07T13:13:06.985Z,36.50
2018-08-07T13:15:37.278Z,36.40
2018-08-07T13:18:07.460Z,37.10
2018-08-07T13:20:37.724Z,37.70
2018-08-07T13:23:08.560Z,37.10
2018-08-07T13:25:38.849Z,37.10
2018-08-07T13:28:09.173Z,36.80
2018-08-07T13:30:39.446Z,36.90
2018-08-07T13:33:09.582Z,36.60
2018-08-07T13:35:39.741Z,36.10
2018-08-07T13:38:10.397Z,35.90
2018-08-07T13:40:40.508Z,36.10
2018-08-07T13:43:10.689Z,35.70
2018-08-07T13:45:40.873Z,35.60
2018-08-07T13:48:11.161Z,35.70
2018-08-07T13:50:41.384Z,36.00
2018-08-07T13:53:11.479Z,36.10
2018-08-07T13:55:41.620Z,36.10
2018-08-07T13:58:11.768Z,36.50
2018-08-07T14:00:41.909Z,36.40
2018-08-07T14:03:12.827Z,36.60
2018-08-07T14:05:42.907Z,36.50
2018-08-07T14:08:12.962Z,36.70
2018-08-07T14:10:43.143Z,36.90
2018-08-07T14:13:13.415Z,36.10
2018-08-07T14:15:43.596Z,35.80
2018-08-07T14:18:13.884Z,36.10
2018-08-07T14:20:44.107Z,36.30
2018-08-07T14:23:14.180Z,36.40
2018-08-07T14:25:44.291Z,36.80
2018-08-07T14:28:14.475Z,36.50
2018-08-07T14:30:44.619Z,36.60
2018-08-07T14:33:15.777Z,36.80
2018-08-07T14:35:46.079Z,37.30
2018-08-07T14:38:16.311Z,37.30
2018-08-07T14:40:46.590Z,37.40
2018-08-07T14:43:16.812Z,37.40
2018-08-07T14:45:46.964Z,37.70
2018-08-07T14:48:17.162Z,38.20
2018-08-07T14:50:47.315Z,38.20
2018-08-07T14:53:17.572Z,38.10
2018-08-07T14:55:48.682Z,37.70
2018-08-07T14:58:18.830Z,37.70
2018-08-07T15:00:48.981Z,37.50
2018-08-07T15:03:19.193Z,37.30
2018-08-07T15:05:49.341Z,37.10
2018-08-07T15:08:19.580Z,37.00
2018-08-07T15:10:49.640Z,37.00
2018-08-07T15:13:19.806Z,37.20
2018-08-07T15:15:49.957Z,37.30
2018-08-07T15:18:20.191Z,36.80
2018-08-07T15:20:50.377Z,36.70
2018-08-07T15:23:20.583Z,36.50
2018-08-07T15:25:51.304Z,36.10
2018-08-07T15:28:21.439Z,35.90
2018-08-07T15:30:51.539Z,35.90
2018-08-07T15:33:21.833Z,36.70
2018-08-07T15:35:52.885Z,36.40
2018-08-07T15:38:23.131Z,36.70
2018-08-07T15:40:53.223Z,36.80
2018-08-07T15:43:23.801Z,36.80
2018-08-07T15:45:54.300Z,36.80
2018-08-07T15:48:24.423Z,36.40
2018-08-07T15:50:54.625Z,36.20
2018-08-07T15:53:24.719Z,36.10
2018-08-07T15:55:55.410Z,36.30
2018-08-07T15:58:25.526Z,36.10
2018-08-07T16:00:55.678Z,36.10
2018-08-07T16:03:25.877Z,36.10
2018-08-07T16:05:56.099Z,36.00
2018-08-07T16:08:26.229Z,35.90
2018-08-07T16:10:56.327Z,36.60
2018-08-07T16:13:26.551Z,35.90
2018-08-07T16:15:56.704Z,35.90
2018-08-07T16:18:26.805Z,36.00
2018-08-07T16:20:56.953Z,35.90
2018-08-07T16:23:27.060Z,35.70
2018-08-07T16:25:57.214Z,35.90
2018-08-07T16:28:27.487Z,36.10
2018-08-07T16:30:57.635Z,36.20
2018-08-07T16:33:27.819Z,36.10
2018-08-07T16:35:57.920Z,35.20
2018-08-07T16:38:28.573Z,34.80
2018-08-07T16:40:58.867Z,34.60
2018-08-07T16:43:29.130Z,34.10
2018-08-07T16:45:59.330Z,34.20
2018-08-07T16:48:29.410Z,34.30
2018-08-07T16:50:59.607Z,34.50
2018-08-07T16:53:29.862Z,35.30
2018-08-07T16:56:00.118Z,34.80
2018-08-07T16:58:30.306Z,35.10
2018-08-07T17:01:00.424Z,35.40
2018-08-07T17:03:32.041Z,35.90
2018-08-07T17:06:02.306Z,36.40
2018-08-07T17:08:32.530Z,36.80
2018-08-07T17:11:33.250Z,37.20
2018-08-07T17:14:03.558Z,37.30
2018-08-07T17:16:34.315Z,37.70
2018-08-07T17:19:04.589Z,38.00
2018-08-07T17:21:34.776Z,38.20
2018-08-07T17:24:05.028Z,38.30
2018-08-07T17:26:35.292Z,38.40
2018-08-07T17:29:06.488Z,38.40
2018-08-07T17:31:36.656Z,38.50
2018-08-07T17:34:07.388Z,38.90
2018-08-07T17:36:37.596Z,38.90
2018-08-07T17:39:09.176Z,39.20
2018-08-07T17:41:39.290Z,39.70
2018-08-07T17:44:09.500Z,40.00
2018-08-07T17:46:39.750Z,40.60
2018-08-07T17:49:10.164Z,41.30
2018-08-07T17:51:40.408Z,42.00
2018-08-07T17:54:10.644Z,42.50
2018-08-07T17:56:40.776Z,42.70
2018-08-07T17:59:10.994Z,43.10
2018-08-07T18:01:41.220Z,43.80
2018-08-07T18:04:11.436Z,44.30
2018-08-07T18:06:41.677Z,44.50
2018-08-07T18:09:12.060Z,45.00
2018-08-07T18:11:42.282Z,45.30
2018-08-07T18:14:13.041Z,45.10
2018-08-07T18:16:43.235Z,45.40
2018-08-07T18:19:13.528Z,45.40
2018-08-07T18:21:43.658Z,45.40
2018-08-07T18:24:13.828Z,45.40
2018-08-07T18:26:44.068Z,45.70
2018-08-07T18:29:14.289Z,47.00
2018-08-07T18:31:44.517Z,46.50
2018-08-07T18:34:14.619Z,47.30
2018-08-07T18:36:44.776Z,47.20
2018-08-07T18:39:15.010Z,47.80
2018-08-07T18:41:45.239Z,48.20
2018-08-07T18:44:15.465Z,48.70
2018-08-07T18:46:45.688Z,48.90
2018-08-07T18:49:15.865Z,49.20
2018-08-07T18:51:46.694Z,49.30
2018-08-07T18:54:16.782Z,49.90
2018-08-07T18:56:46.953Z,49.30
2018-08-07T18:59:17.097Z,49.10
2018-08-07T19:01:47.248Z,49.00
2018-08-07T19:04:17.423Z,49.00
2018-08-07T19:06:47.533Z,49.30
2018-08-07T19:09:17.698Z,49.50
2018-08-07T19:11:47.911Z,49.60
2018-08-07T19:14:18.128Z,49.60
2018-08-07T19:16:48.212Z,49.60
2018-08-07T19:19:18.346Z,49.30
2018-08-07T19:21:48.520Z,49.80
2018-08-07T19:24:18.891Z,49.90
2018-08-07T19:26:49.052Z,50.00
2018-08-07T19:29:19.258Z,50.00
2018-08-07T19:31:49.488Z,50.00
2018-08-07T19:34:20.585Z,50.20
2018-08-07T19:36:51.589Z,49.50
2018-08-07T19:39:21.732Z,50.20
2018-08-07T19:41:51.804Z,50.50
2018-08-07T19:44:21.940Z,50.80
2018-08-07T19:46:52.279Z,51.00
2018-08-07T19:49:22.402Z,51.10
2018-08-07T19:51:52.511Z,51.20
2018-08-07T19:54:22.611Z,51.30
2018-08-07T19:56:52.672Z,51.10
2018-08-07T19:59:22.886Z,51.00
2018-08-07T20:01:53.150Z,51.00
2018-08-07T20:04:24.771Z,51.00
2018-08-07T20:06:54.918Z,51.10
2018-08-07T20:09:25.140Z,51.40
2018-08-07T20:11:55.360Z,51.60
2018-08-07T20:14:25.970Z,51.80
2018-08-07T20:16:56.705Z,51.90
2018-08-07T20:19:26.991Z,52.10
2018-08-07T20:21:57.181Z,52.20
2018-08-07T20:24:34.460Z,52.20
2018-08-07T20:27:04.704Z,52.30
2018-08-07T20:29:34.925Z,52.50
2018-08-07T20:32:05.085Z,52.80
2018-08-07T20:34:36.178Z,53.00
2018-08-07T20:37:06.520Z,53.20
2018-08-07T20:39:36.802Z,53.50
2018-08-07T20:42:07.125Z,53.70
2018-08-07T20:44:37.376Z,54.00
2018-08-07T20:47:07.561Z,54.10
2018-08-07T20:49:37.698Z,54.30
2018-08-07T20:52:07.816Z,54.80
2018-08-07T20:54:38.590Z,55.00
2018-08-07T20:57:09.048Z,55.00
2018-08-07T20:59:39.121Z,54.70
2018-08-07T21:02:09.413Z,54.60
2018-08-07T21:04:39.555Z,54.60
2018-08-07T21:07:10.619Z,54.40
2018-08-07T21:09:40.821Z,54.40
2018-08-07T21:12:10.978Z,54.40
2018-08-07T21:14:42.150Z,54.60
2018-08-07T21:17:12.424Z,54.60
2018-08-07T21:19:42.634Z,55.20
2018-08-07T21:22:13.077Z,54.60
2018-08-07T21:24:43.238Z,54.60
2018-08-07T21:27:13.429Z,54.40
2018-08-07T21:29:43.600Z,54.40
2018-08-07T21:32:13.868Z,54.40
2018-08-07T21:34:53.343Z,54.50
2018-08-07T21:37:24.196Z,54.60
2018-08-07T21:39:54.287Z,54.80
2018-08-07T21:42:24.350Z,54.90
2018-08-07T21:44:54.487Z,55.20
2018-08-07T21:47:24.608Z,55.90
2018-08-07T21:50:08.553Z,55.70
2018-08-07T21:52:39.081Z,55.80
2018-08-07T21:55:11.251Z,55.60
2018-08-07T21:57:41.673Z,55.50
2018-08-07T22:00:17.734Z,55.10
2018-08-07T22:02:49.032Z,55.10
2018-08-07T22:05:19.272Z,55.00
2018-08-07T22:07:49.699Z,55.00
2018-08-07T22:10:22.548Z,55.10
2018-08-07T22:12:52.756Z,55.00
2018-08-07T22:15:22.890Z,54.80
2018-08-07T22:17:53.169Z,54.40
2018-08-07T22:20:23.600Z,54.20
2018-08-07T22:22:53.768Z,53.90
2018-08-07T22:25:23.922Z,53.80
2018-08-07T22:27:54.159Z,53.80
2018-08-07T22:30:24.884Z,53.60
2018-08-07T22:32:55.120Z,53.50
2018-08-07T22:35:25.227Z,53.50
2018-08-07T22:37:55.386Z,53.40
2018-08-07T22:40:25.648Z,53.30
2018-08-07T22:42:55.813Z,53.30
2018-08-07T22:45:26.178Z,53.20
2018-08-07T22:47:56.399Z,53.20
2018-08-07T22:50:26.501Z,53.10
2018-08-07T22:52:56.623Z,53.10
2018-08-07T22:55:26.795Z,53.20
2018-08-07T22:57:56.879Z,53.10
2018-08-07T23:00:27.196Z,53.10
2018-08-07T23:02:57.337Z,52.80
2018-08-07T23:05:31.475Z,52.70
2018-08-07T23:08:01.637Z,53.10
2018-08-07T23:10:31.845Z,52.80
2018-08-07T23:13:02.040Z,52.90
2018-08-07T23:15:32.213Z,53.60
2018-08-07T23:18:02.304Z,53.10
2018-08-07T23:20:32.457Z,53.10
2018-08-07T23:23:02.632Z,53.70
2018-08-07T23:25:32.790Z,53.10
2018-08-07T23:28:02.913Z,53.20
2018-08-07T23:30:32.936Z,53.40
2018-08-07T23:33:03.023Z,53.60
2018-08-07T23:35:33.255Z,53.70
2018-08-07T23:38:03.390Z,53.90
2018-08-07T23:40:33.477Z,54.10
2018-08-07T23:43:03.643Z,54.20
2018-08-07T23:45:33.852Z,54.10
2018-08-07T23:48:03.983Z,54.20
2018-08-07T23:50:34.094Z,54.50
2018-08-07T23:53:04.211Z,54.50
2018-08-07T23:55:34.361Z,54.60
2018-08-07T23:58:04.474Z,54.70
